Impacts TAF Board
For situational awareness. Not to be used for flight planning purposes.
IDs:

KORD - Chicago/O'Hare Intl, IL, US

Issued at 0520 UTC 03 Jul 2022
Updated at 0613 UTC 03 Jul 2022
Potential Impact None Slight Moderate High
Time0551Z 03/07Z 03/08Z 03/09Z 03/10Z 03/11Z 03/12Z 03/13Z 03/14Z 03/15Z 03/16Z 03/17Z 03/18Z 03/19Z>>
Type OBS PRVL PRVL PRVL PRVL PRVL PRVL PRVL PRVL PRVL PRVL PRVL PRVL PRVL
VIS 10 >6 >6 >6 >6 >6 >6 >6 >6 >6 >6 >6 >6 >6
CIG 120 -- -- -- -- -- -- -- -- -- -- -- -- --
Cover BKN SCT SCT SCT SCT SCT SCT SCT SCT SCT SCT SCT SCT FEW
FltCat VFR VFR VFR VFR VFR VFR VFR VFR VFR VFR VFR VFR VFR VFR
WX -- -- -- -- -- -- -- -- -- -- -- -- -- --
WDir 230 VRB VRB VRB VRB VRB VRB VRB VRB VRB VRB VRB VRB 80
WSpd 4 5 5 5 5 5 5 5 5 5 5 5 5 10
WGst -- -- -- -- -- -- -- -- -- -- -- -- -- --
WSHgt -- -- -- -- -- -- -- -- -- -- -- -- -- --
WSDir -- -- -- -- -- -- -- -- -- -- -- -- -- --
WSSpd -- -- -- -- -- -- -- -- -- -- -- -- -- --
Raw TAF
KORD 030520Z 0306/0412 VRB05KT P6SM SCT110
  FM031900 08010KT P6SM FEW060 FEW300
  FM040100 12006KT P6SM FEW300


Raw METAR
KORD 030551Z 23004KT 10SM BKN120 24/10 A3007 RMK AO2 SLP178 T02390100 10278 20239 403060183 53005
KORD 030451Z 20006KT 10SM BKN110 24/09 A3006 RMK AO2 SLP175 T02390094
KORD 030351Z 19006KT 10SM BKN120 24/09 A3006 RMK AO2 SLP174 T02440089

METAR Board
Radar Display
Forecast Discussion
For situational awareness. Not to be used for flight planning purposes.